Time;durP1;ratioP1;P1;durP2;ratioP2;P2;SDS_P1;SDS_P2;PMS_P1;PMS_P2;Temp;Humidity;BMP_temperature;BMP_pressure;BME280_temperature;BME280_humidity;BME280_pressure;Samples;Min_cycle;Max_cycle;Signal;HPM_P1;HPM_P2
2021/12/23 00:01:27;;;;;;;7.45;6.72;;;18.00;92.40;;;;;;4194530;28;20310;-78
2021/12/23 00:03:30;;;;;;;7.20;6.35;;;17.90;92.30;;;;;;4193756;28;20260;-78
2021/12/23 00:05:32;;;;;;;7.75;6.47;;;17.90;92.30;;;;;;4194146;28;20223;-78
2021/12/23 00:07:35;;;;;;;7.60;6.40;;;17.90;92.30;;;;;;4194854;28;20207;-78
2021/12/23 00:10:03;;;;;;;8.52;7.05;;;17.90;92.30;;;;;;4194962;28;20323;-78
2021/12/23 00:12:06;;;;;;;7.22;6.50;;;17.90;92.30;;;;;;4195611;28;21107;-77
2021/12/23 00:14:10;;;;;;;7.40;6.63;;;17.90;92.30;;;;;;4194582;28;20241;-78
2021/12/23 00:16:18;;;;;;;8.15;7.05;;;17.90;92.30;;;;;;4194660;28;20687;-78
2021/12/23 00:18:41;;;;;;;7.88;6.97;;;17.90;92.30;;;;;;4195320;28;20219;-78
2021/12/23 00:23:25;;;;;;;8.25;6.85;;;17.90;92.30;;;;;;4195289;28;20211;-78
2021/12/23 00:25:29;;;;;;;7.78;6.97;;;17.90;92.30;;;;;;4194016;28;20709;-78
2021/12/23 00:27:31;;;;;;;7.13;6.43;;;17.80;92.20;;;;;;4194151;28;20618;-78
2021/12/23 00:29:34;;;;;;;8.10;6.75;;;17.80;92.20;;;;;;4194771;28;20276;-77
2021/12/23 00:31:36;;;;;;;6.90;6.20;;;17.80;92.30;;;;;;4193762;28;20235;-78
2021/12/23 00:33:40;;;;;;;8.48;6.78;;;17.80;92.30;;;;;;4192798;28;20269;-77
2021/12/23 00:35:42;;;;;;;9.48;6.65;;;17.80;92.20;;;;;;4193773;28;20265;-78
2021/12/23 00:37:47;;;;;;;7.40;6.47;;;17.80;92.20;;;;;;4193473;28;20211;-78
2021/12/23 00:39:49;;;;;;;7.43;6.68;;;17.70;92.20;;;;;;4192969;28;20215;-77
2021/12/23 00:41:54;;;;;;;7.90;7.03;;;17.70;92.10;;;;;;4192482;28;20238;-77
2021/12/23 00:43:57;;;;;;;7.45;6.60;;;17.70;92.20;;;;;;4193192;28;20246;-78
2021/12/23 00:46:00;;;;;;;7.22;6.53;;;17.70;92.20;;;;;;4193465;28;20223;-78
2021/12/23 00:48:03;;;;;;;8.05;6.75;;;17.70;92.20;;;;;;4194781;28;20223;-78
2021/12/23 00:50:06;;;;;;;10.25;6.72;;;17.70;92.20;;;;;;4193343;28;20272;-77
2021/12/23 00:52:09;;;;;;;7.68;6.88;;;17.70;92.20;;;;;;4193663;28;20212;-78
2021/12/23 00:54:11;;;;;;;8.40;7.43;;;17.70;92.20;;;;;;4192505;28;20276;-78
2021/12/23 00:56:13;;;;;;;8.52;6.57;;;17.70;92.10;;;;;;4193011;28;20222;-77
2021/12/23 00:58:17;;;;;;;8.23;7.35;;;17.70;92.20;;;;;;4192189;28;20261;-78
2021/12/23 01:00:20;;;;;;;8.15;6.70;;;17.60;92.10;;;;;;4193224;28;20215;-77
2021/12/23 01:02:25;;;;;;;8.18;7.07;;;17.60;92.10;;;;;;4193255;28;20296;-77
2021/12/23 01:04:27;;;;;;;7.07;6.38;;;17.60;92.10;;;;;;4193029;28;20249;-77
2021/12/23 01:06:29;;;;;;;9.68;7.15;;;17.60;92.10;;;;;;4193374;28;20211;-78
2021/12/23 01:08:32;;;;;;;9.05;7.47;;;17.60;92.10;;;;;;4194232;28;20222;-78
2021/12/23 01:10:35;;;;;;;7.57;6.78;;;17.60;92.00;;;;;;4192637;28;20268;-78
2021/12/23 01:12:42;;;;;;;8.20;7.32;;;17.60;92.10;;;;;;4192818;28;20223;-78
2021/12/23 01:14:55;;;;;;;7.85;7.05;;;17.60;92.10;;;;;;4193890;28;20218;-77
2021/12/23 01:17:23;;;;;;;8.88;7.13;;;17.60;92.00;;;;;;4193419;28;20352;-78
2021/12/23 01:19:26;;;;;;;7.18;6.47;;;17.60;92.00;;;;;;4193839;28;20211;-78
2021/12/23 01:21:29;;;;;;;8.50;7.03;;;17.60;91.90;;;;;;4192922;28;20276;-78
2021/12/23 01:23:34;;;;;;;8.25;6.85;;;17.60;92.10;;;;;;4193412;28;20211;-78
2021/12/23 01:25:38;;;;;;;7.70;6.75;;;17.60;92.00;;;;;;4192035;28;20215;-78
2021/12/23 01:27:40;;;;;;;8.02;7.22;;;17.50;92.10;;;;;;4194443;28;20925;-77
2021/12/23 01:29:43;;;;;;;9.05;6.80;;;17.50;92.00;;;;;;4192818;28;20211;-78
2021/12/23 01:31:47;;;;;;;7.88;7.07;;;17.50;91.90;;;;;;4191240;28;20284;-77
2021/12/23 01:33:49;;;;;;;8.35;7.03;;;17.50;92.10;;;;;;4193226;28;20264;-77
2021/12/23 01:35:51;;;;;;;8.32;7.25;;;17.50;92.00;;;;;;4193544;28;20211;-78
2021/12/23 01:37:54;;;;;;;7.47;6.70;;;17.50;92.00;;;;;;4192504;28;20223;-78
2021/12/23 01:39:56;;;;;;;10.50;7.32;;;17.50;92.00;;;;;;4193403;28;20264;-77
2021/12/23 01:41:59;;;;;;;8.95;6.80;;;17.50;92.10;;;;;;4193062;28;20773;-77
2021/12/23 01:44:01;;;;;;;8.32;6.88;;;17.50;92.00;;;;;;4191250;28;20269;-78
2021/12/23 01:46:04;;;;;;;8.48;6.85;;;17.50;92.00;;;;;;4193132;28;20223;-78
2021/12/23 01:48:07;;;;;;;7.80;7.00;;;17.40;91.90;;;;;;4193134;28;20284;-78
2021/12/23 01:50:12;;;;;;;7.97;7.18;;;17.50;92.00;;;;;;4191853;28;20218;-78
2021/12/23 01:52:14;;;;;;;8.80;6.95;;;17.40;91.90;;;;;;4193622;28;20243;-78
2021/12/23 01:54:16;;;;;;;8.50;7.35;;;17.40;91.90;;;;;;4193700;28;20227;-78
2021/12/23 01:56:19;;;;;;;7.13;6.30;;;17.40;91.90;;;;;;4193625;28;20249;-78
2021/12/23 01:58:22;;;;;;;7.45;6.32;;;17.40;91.90;;;;;;4195290;28;20717;-76
2021/12/23 02:00:27;;;;;;;8.57;7.05;;;17.50;92.00;;;;;;4191870;28;20272;-76
2021/12/23 02:02:31;;;;;;;8.30;6.68;;;17.40;92.00;;;;;;4191367;28;20281;-76
2021/12/23 02:04:34;;;;;;;7.57;6.78;;;17.40;91.90;;;;;;4192702;28;20632;-76
2021/12/23 02:06:37;;;;;;;7.40;6.60;;;17.40;91.90;;;;;;4191736;28;20269;-76
2021/12/23 02:08:40;;;;;;;8.05;7.25;;;17.40;91.90;;;;;;4192342;28;20269;-76
2021/12/23 02:10:44;;;;;;;8.23;6.85;;;17.40;91.90;;;;;;4193033;28;20227;-76
2021/12/23 02:12:48;;;;;;;8.30;6.95;;;17.40;91.90;;;;;;4190930;28;20219;-76
2021/12/23 02:14:50;;;;;;;8.63;7.22;;;17.40;91.90;;;;;;4191473;28;20732;-76
2021/12/23 02:16:52;;;;;;;8.82;7.47;;;17.40;91.90;;;;;;4192298;28;20268;-76
2021/12/23 02:18:55;;;;;;;8.23;7.35;;;17.40;92.00;;;;;;4191613;28;20272;-76
2021/12/23 02:20:59;;;;;;;8.02;7.13;;;17.40;91.90;;;;;;4193067;28;20211;-76
2021/12/23 02:23:03;;;;;;;8.85;7.38;;;17.40;91.90;;;;;;4190554;28;21456;-76
2021/12/23 02:25:08;;;;;;;7.80;7.03;;;17.30;91.90;;;;;;4191776;28;20280;-76
2021/12/23 02:27:11;;;;;;;8.55;6.93;;;17.30;92.00;;;;;;4192428;28;20265;-76
2021/12/23 02:29:13;;;;;;;7.97;6.80;;;17.30;91.90;;;;;;4192744;28;20223;-76
2021/12/23 02:31:16;;;;;;;7.82;7.03;;;17.30;91.90;;;;;;4192410;28;20218;-76
2021/12/23 02:33:18;;;;;;;8.32;7.35;;;17.30;91.80;;;;;;4192977;28;20203;-76
2021/12/23 02:35:22;;;;;;;8.10;7.18;;;17.30;91.90;;;;;;4192202;28;20614;-76
2021/12/23 02:37:26;;;;;;;8.18;7.30;;;17.30;91.80;;;;;;4191554;28;20621;-76
2021/12/23 02:39:29;;;;;;;8.68;7.32;;;17.30;91.90;;;;;;4190733;28;20731;-76
2021/12/23 02:41:32;;;;;;;8.90;7.35;;;17.30;91.90;;;;;;4191703;28;20268;-76
2021/12/23 02:43:36;;;;;;;9.02;6.88;;;17.30;91.90;;;;;;4191472;28;21762;-76
2021/12/23 02:45:39;;;;;;;10.68;7.72;;;17.30;91.90;;;;;;4190800;28;20276;-77
2021/12/23 02:47:42;;;;;;;9.40;7.72;;;17.30;92.00;;;;;;4192015;28;20207;-76
2021/12/23 02:49:44;;;;;;;8.45;7.18;;;17.30;91.90;;;;;;4191702;28;20601;-76
2021/12/23 02:51:47;;;;;;;8.63;7.22;;;17.30;92.00;;;;;;4192035;28;20265;-76
2021/12/23 02:53:51;;;;;;;8.02;6.70;;;17.20;91.90;;;;;;4190432;28;20230;-76
2021/12/23 02:55:55;;;;;;;9.30;8.00;;;17.20;91.90;;;;;;4192121;28;20222;-76
2021/12/23 02:57:57;;;;;;;8.75;7.10;;;17.20;91.90;;;;;;4191520;28;20287;-76
2021/12/23 03:00:00;;;;;;;8.73;7.55;;;17.20;91.90;;;;;;4192303;28;20272;-76
2021/12/23 03:02:02;;;;;;;8.20;6.72;;;17.20;91.90;;;;;;4192132;28;20222;-76
2021/12/23 03:04:05;;;;;;;9.50;7.18;;;17.20;91.90;;;;;;4192445;28;20231;-76
2021/12/23 03:06:07;;;;;;;8.60;7.22;;;17.20;92.00;;;;;;4191320;28;20276;-76
2021/12/23 03:08:09;;;;;;;8.18;7.20;;;17.20;92.30;;;;;;4192226;28;20223;-76
2021/12/23 03:10:14;;;;;;;8.35;7.00;;;17.20;91.90;;;;;;4191718;28;20219;-76
2021/12/23 03:12:16;;;;;;;9.15;7.28;;;17.20;91.90;;;;;;4192497;28;20241;-76
2021/12/23 03:14:19;;;;;;;8.05;7.00;;;17.20;91.90;;;;;;4191708;28;20219;-76
2021/12/23 03:16:23;;;;;;;8.00;6.63;;;17.20;91.90;;;;;;4192405;28;20211;-76
2021/12/23 03:18:25;;;;;;;7.80;7.00;;;17.20;91.90;;;;;;4192414;28;20804;-76
2021/12/23 03:20:27;;;;;;;8.27;7.15;;;17.10;91.90;;;;;;4191846;28;20222;-76
2021/12/23 03:22:30;;;;;;;9.68;7.40;;;17.10;91.90;;;;;;4191971;28;20223;-76
2021/12/23 03:24:32;;;;;;;8.98;7.80;;;17.10;91.90;;;;;;4195058;28;20210;-76
2021/12/23 03:26:36;;;;;;;8.77;7.25;;;17.10;92.30;;;;;;4193440;28;20280;-76
2021/12/23 03:28:38;;;;;;;8.52;6.75;;;17.10;91.90;;;;;;4195391;28;20254;-76
2021/12/23 03:30:40;;;;;;;8.55;7.45;;;17.00;91.80;;;;;;4193552;28;20265;-76
2021/12/23 03:32:42;;;;;;;8.85;7.18;;;17.10;91.90;;;;;;4194110;28;20285;-76
2021/12/23 03:34:45;;;;;;;8.40;7.35;;;17.10;91.90;;;;;;4195177;28;20219;-77
2021/12/23 03:36:47;;;;;;;7.68;6.88;;;17.10;91.90;;;;;;4195131;28;20219;-76
2021/12/23 03:38:50;;;;;;;10.38;8.10;;;17.10;91.90;;;;;;4194481;28;20223;-76
2021/12/23 03:40:52;;;;;;;9.13;6.95;;;17.10;91.90;;;;;;4192728;28;20233;-76
2021/12/23 03:42:56;;;;;;;9.27;7.60;;;17.10;91.90;;;;;;4194833;28;20227;-76
2021/12/23 03:44:58;;;;;;;7.65;6.57;;;17.10;91.90;;;;;;4193338;28;20671;-76
2021/12/23 03:47:01;;;;;;;9.02;7.28;;;17.10;91.90;;;;;;4195116;28;20608;-77
2021/12/23 03:49:03;;;;;;;9.70;7.47;;;17.00;91.90;;;;;;4192716;28;20269;-76
2021/12/23 03:51:06;;;;;;;8.68;7.78;;;17.00;91.80;;;;;;4194441;28;20219;-76
2021/12/23 03:53:08;;;;;;;8.32;7.18;;;17.00;91.90;;;;;;4194937;28;20215;-76
2021/12/23 03:55:11;;;;;;;7.55;6.75;;;17.00;91.80;;;;;;4194647;28;20241;-77
2021/12/23 03:57:13;;;;;;;9.07;7.22;;;17.00;91.90;;;;;;4194713;28;20226;-76
2021/12/23 03:59:17;;;;;;;8.30;7.47;;;16.90;91.80;;;;;;4194625;28;20226;-76
2021/12/23 04:01:20;;;;;;;8.00;6.93;;;17.00;92.40;;;;;;4192658;28;20265;-76
2021/12/23 04:03:22;;;;;;;8.18;7.13;;;17.00;91.90;;;;;;4194290;28;20230;-76
2021/12/23 04:05:25;;;;;;;9.32;7.43;;;17.00;91.80;;;;;;4192442;28;20215;-76
2021/12/23 04:07:27;;;;;;;8.07;6.80;;;17.00;91.90;;;;;;4194682;28;20215;-75
2021/12/23 04:09:29;;;;;;;9.68;7.72;;;17.00;91.90;;;;;;4194318;28;20215;-76
2021/12/23 04:11:32;;;;;;;7.85;7.05;;;16.90;91.90;;;;;;4194610;28;20215;-76
2021/12/23 04:13:34;;;;;;;8.75;7.05;;;16.90;91.80;;;;;;4194621;28;20257;-76
2021/12/23 04:15:38;;;;;;;8.30;6.68;;;16.90;92.00;;;;;;4194268;28;20215;-76
2021/12/23 04:17:40;;;;;;;8.57;7.22;;;16.90;92.00;;;;;;4192427;28;20293;-76
2021/12/23 04:19:45;;;;;;;8.40;7.32;;;16.90;92.00;;;;;;4193746;28;20272;-76
2021/12/23 04:21:48;;;;;;;9.73;7.63;;;16.90;92.00;;;;;;4193259;28;20215;-76
2021/12/23 04:23:50;;;;;;;9.43;7.40;;;16.90;92.00;;;;;;4193770;28;22153;-76
2021/12/23 04:25:54;;;;;;;9.20;7.30;;;16.90;92.00;;;;;;4194265;28;20273;-76
2021/12/23 04:27:58;;;;;;;8.63;6.88;;;16.90;92.10;;;;;;4193936;28;20585;-76
2021/12/23 04:30:00;;;;;;;7.88;6.93;;;16.90;92.10;;;;;;4193499;28;20211;-75
2021/12/23 04:32:05;;;;;;;7.63;6.80;;;16.90;92.00;;;;;;4193293;28;20277;-76
2021/12/23 04:34:08;;;;;;;8.07;7.28;;;16.90;92.00;;;;;;4192577;28;20280;-74
2021/12/23 04:36:11;;;;;;;8.80;6.72;;;16.90;92.00;;;;;;4191733;28;20234;-74
2021/12/23 04:38:14;;;;;;;8.52;7.07;;;16.90;92.00;;;;;;4192975;28;20219;-74
2021/12/23 04:40:16;;;;;;;7.85;6.97;;;16.90;92.10;;;;;;4191768;28;20219;-73
2021/12/23 04:42:19;;;;;;;7.97;7.18;;;16.80;92.00;;;;;;4193330;28;20619;-74
2021/12/23 04:44:21;;;;;;;7.47;6.47;;;16.80;92.00;;;;;;4192591;28;20246;-74
2021/12/23 04:46:23;;;;;;;8.35;7.43;;;16.80;92.00;;;;;;4193333;28;20218;-74
2021/12/23 04:48:28;;;;;;;8.23;6.80;;;16.80;92.50;;;;;;4193270;28;20223;-74
2021/12/23 04:50:30;;;;;;;8.57;7.38;;;16.80;92.10;;;;;;4192904;28;20257;-74
2021/12/23 04:52:32;;;;;;;7.95;6.53;;;16.80;92.10;;;;;;4192053;28;20219;-74
2021/12/23 04:54:34;;;;;;;7.97;7.18;;;16.80;92.10;;;;;;4192406;28;20211;-74
2021/12/23 04:56:37;;;;;;;8.43;6.88;;;16.80;92.10;;;;;;4192572;28;20276;-74
2021/12/23 04:58:40;;;;;;;8.93;6.78;;;16.80;92.10;;;;;;4192898;28;20227;-74
2021/12/23 05:00:47;;;;;;;8.75;6.85;;;16.80;92.10;;;;;;4193445;28;20268;-74
2021/12/23 05:02:49;;;;;;;7.18;6.35;;;16.80;92.10;;;;;;4192935;28;20219;-74
2021/12/23 05:04:53;;;;;;;8.35;6.93;;;16.80;92.00;;;;;;4192694;28;20623;-74
2021/12/23 05:06:55;;;;;;;8.80;7.20;;;16.80;92.10;;;;;;4192070;28;20219;-74
2021/12/23 05:08:58;;;;;;;8.80;7.32;;;16.80;92.10;;;;;;4192455;28;20215;-74
2021/12/23 05:11:00;;;;;;;8.88;6.63;;;16.80;92.10;;;;;;4192993;28;20215;-74
2021/12/23 05:13:03;;;;;;;10.32;7.40;;;16.80;92.10;;;;;;4192629;28;20219;-74
2021/12/23 05:15:06;;;;;;;7.88;6.82;;;16.80;92.00;;;;;;4192710;28;20261;-74
2021/12/23 05:17:09;;;;;;;7.93;6.82;;;16.80;92.10;;;;;;4193212;28;20277;-74
2021/12/23 05:19:11;;;;;;;8.30;7.00;;;16.80;92.10;;;;;;4192736;28;20219;-74
2021/12/23 05:21:18;;;;;;;7.72;6.35;;;16.80;92.10;;;;;;4192822;28;20260;-74
2021/12/23 05:23:20;;;;;;;7.95;6.35;;;16.80;92.10;;;;;;4192725;28;20258;-74
2021/12/23 05:25:22;;;;;;;7.88;6.55;;;16.80;92.20;;;;;;4192377;28;20230;-74
2021/12/23 05:27:25;;;;;;;7.97;6.80;;;16.80;92.20;;;;;;4193178;28;20296;-74
2021/12/23 05:29:27;;;;;;;8.02;6.88;;;16.70;92.10;;;;;;4191939;28;20629;-74
2021/12/23 05:31:29;;;;;;;9.13;6.90;;;16.80;92.50;;;;;;4192270;28;20235;-74
2021/12/23 05:33:32;;;;;;;8.03;7.13;;;16.70;92.20;;;;;;4192876;28;20613;-74
2021/12/23 05:35:34;;;;;;;7.78;6.68;;;16.80;92.20;;;;;;4193438;28;20256;-73
2021/12/23 05:37:38;;;;;;;8.93;7.00;;;16.70;92.10;;;;;;4191711;28;20215;-74
2021/12/23 05:39:40;;;;;;;9.55;7.13;;;16.70;92.20;;;;;;4191902;28;20219;-74
2021/12/23 05:41:43;;;;;;;8.90;6.88;;;16.80;92.20;;;;;;4193567;28;20249;-73
2021/12/23 05:43:45;;;;;;;8.57;7.30;;;16.70;92.20;;;;;;4191473;28;20249;-74
2021/12/23 05:45:47;;;;;;;7.95;6.63;;;16.80;92.30;;;;;;4191941;28;20239;-74
2021/12/23 05:47:51;;;;;;;7.97;7.00;;;16.80;92.20;;;;;;4192211;28;20218;-74
2021/12/23 05:49:53;;;;;;;9.23;7.13;;;16.80;92.20;;;;;;4192684;28;20257;-74
2021/12/23 05:51:56;;;;;;;8.45;7.32;;;16.70;92.20;;;;;;4193070;28;20280;-74
2021/12/23 05:53:59;;;;;;;8.57;7.03;;;16.70;92.30;;;;;;4192085;28;20892;-74
2021/12/23 05:56:02;;;;;;;8.07;6.82;;;16.40;92.60;;;;;;4192674;28;20214;-74
2021/12/23 05:58:04;;;;;;;9.67;7.67;;;16.30;92.70;;;;;;4191591;28;20261;-74
2021/12/23 06:00:10;;;;;;;9.85;7.78;;;16.30;92.80;;;;;;4191824;28;20284;-74
2021/12/23 06:02:12;;;;;;;7.88;7.07;;;16.30;92.60;;;;;;4191801;28;20214;-74
2021/12/23 06:04:15;;;;;;;7.70;6.68;;;16.50;92.50;;;;;;4189839;28;20253;-74
2021/12/23 06:06:17;;;;;;;7.72;6.53;;;16.60;92.70;;;;;;4192107;28;21343;-74
2021/12/23 06:08:20;;;;;;;8.15;6.53;;;16.70;92.40;;;;;;4192069;28;20260;-74
2021/12/23 06:10:24;;;;;;;8.27;7.15;;;16.80;92.50;;;;;;4191506;28;20828;-74
2021/12/23 06:12:27;;;;;;;10.52;8.00;;;16.90;92.40;;;;;;4191521;28;20641;-74
2021/12/23 06:14:29;;;;;;;7.95;6.97;;;17.00;92.60;;;;;;4191677;28;20219;-74
2021/12/23 06:16:31;;;;;;;8.95;7.78;;;17.00;92.20;;;;;;4189934;28;20605;-74
2021/12/23 06:18:34;;;;;;;9.23;7.45;;;17.00;92.30;;;;;;4191379;28;20351;-74
2021/12/23 06:20:36;;;;;;;8.02;6.75;;;17.00;92.40;;;;;;4191377;28;20219;-74
2021/12/23 06:22:39;;;;;;;9.32;7.65;;;17.10;92.40;;;;;;4191587;28;20737;-74
2021/12/23 06:24:44;;;;;;;10.10;7.88;;;17.10;92.20;;;;;;4192087;28;20235;-74
2021/12/23 06:26:48;;;;;;;9.48;7.78;;;17.10;92.30;;;;;;4191080;28;20215;-74
2021/12/23 06:28:50;;;;;;;9.85;7.82;;;17.10;92.50;;;;;;4192046;28;20215;-74
2021/12/23 06:30:53;;;;;;;10.35;7.63;;;17.10;92.30;;;;;;4191610;28;20223;-74
2021/12/23 06:32:56;;;;;;;10.27;7.60;;;17.20;92.40;;;;;;4179783;28;20240;-74
2021/12/23 06:34:58;;;;;;;9.73;7.35;;;17.20;92.80;;;;;;4178520;28;20220;-74
2021/12/23 06:37:03;;;;;;;9.60;7.50;;;17.20;92.60;;;;;;4176988;28;20257;-74
2021/12/23 06:39:06;;;;;;;9.80;7.15;;;17.20;92.60;;;;;;4176763;28;20652;-74
2021/12/23 06:41:09;;;;;;;10.30;8.35;;;17.30;92.60;;;;;;4179106;28;20223;-74
2021/12/23 06:43:13;;;;;;;9.80;7.80;;;17.30;92.90;;;;;;4179481;28;20219;-74
2021/12/23 06:45:16;;;;;;;9.05;7.07;;;17.20;92.90;;;;;;4178610;28;20235;-74
2021/12/23 06:47:18;;;;;;;9.65;7.75;;;17.30;92.70;;;;;;4179597;28;20220;-74
2021/12/23 06:49:21;;;;;;;8.77;7.78;;;17.30;92.80;;;;;;4179276;28;20211;-74
2021/12/23 06:51:23;;;;;;;8.43;7.30;;;17.30;92.80;;;;;;4176935;28;20809;-74
2021/12/23 06:53:26;;;;;;;8.20;7.15;;;17.30;93.00;;;;;;4178416;28;20267;-74
2021/12/23 06:55:29;;;;;;;8.15;6.97;;;17.30;93.00;;;;;;4176343;28;20212;-74
2021/12/23 06:57:31;;;;;;;9.38;7.72;;;17.30;93.00;;;;;;4175752;28;20270;-74
2021/12/23 06:59:35;;;;;;;8.98;7.22;;;17.30;92.90;;;;;;4175319;28;20212;-74
2021/12/23 07:01:37;;;;;;;8.75;7.28;;;17.40;93.00;;;;;;4178953;28;20257;-74
2021/12/23 07:03:59;;;;;;;8.77;7.28;;;17.40;93.10;;;;;;4178712;28;20224;-74
2021/12/23 07:06:06;;;;;;;8.57;7.30;;;17.40;93.30;;;;;;4177660;28;20243;-74
2021/12/23 07:08:12;;;;;;;9.65;7.72;;;17.40;93.20;;;;;;4176581;28;20220;-74
2021/12/23 07:10:14;;;;;;;10.73;7.65;;;17.40;93.30;;;;;;4178132;28;20635;-73
2021/12/23 07:12:16;;;;;;;9.88;7.32;;;17.40;93.20;;;;;;4176632;28;20272;-74
2021/12/23 07:14:19;;;;;;;10.27;7.63;;;17.40;93.30;;;;;;4179028;28;20265;-74
2021/12/23 07:16:23;;;;;;;9.77;8.18;;;17.50;93.50;;;;;;4176812;28;20846;-74
2021/12/23 07:18:25;;;;;;;9.65;8.15;;;17.50;93.30;;;;;;4176864;28;20215;-74
2021/12/23 07:20:29;;;;;;;9.43;6.93;;;17.50;93.60;;;;;;4177251;28;20261;-74
2021/12/23 07:22:31;;;;;;;9.70;7.57;;;17.50;93.60;;;;;;4177643;28;20661;-74
2021/12/23 07:24:35;;;;;;;10.10;7.32;;;17.50;93.50;;;;;;4177255;28;20285;-73
2021/12/23 07:26:37;;;;;;;9.13;7.22;;;17.50;93.80;;;;;;4181389;28;20250;-74
2021/12/23 07:28:39;;;;;;;8.77;7.05;;;17.50;93.50;;;;;;4178599;28;20224;-74
2021/12/23 07:30:41;;;;;;;7.30;6.53;;;17.50;93.80;;;;;;4181454;28;20292;-73
2021/12/23 07:32:46;;;;;;;9.57;7.53;;;17.50;93.50;;;;;;4183027;28;20235;-74
2021/12/23 07:34:48;;;;;;;8.63;6.78;;;17.60;93.70;;;;;;4179411;28;20220;-74
2021/12/23 07:36:50;;;;;;;10.02;7.45;;;17.60;94.00;;;;;;4176567;28;20223;-74
2021/12/23 07:38:56;;;;;;;8.68;6.97;;;17.60;94.00;;;;;;4177403;28;20228;-74
2021/12/23 07:40:58;;;;;;;7.85;6.63;;;17.60;94.00;;;;;;4178211;28;20677;-73
2021/12/23 07:43:10;;;;;;;9.30;6.78;;;17.60;93.70;;;;;;4176466;28;20274;-74
2021/12/23 07:45:12;;;;;;;8.50;6.88;;;17.60;94.00;;;;;;4179977;28;20641;-74
2021/12/23 07:47:17;;;;;;;7.85;6.47;;;17.60;93.90;;;;;;4176731;28;20533;-74
2021/12/23 07:49:21;;;;;;;8.35;6.82;;;17.60;94.00;;;;;;4178549;28;20278;-74
2021/12/23 07:51:24;;;;;;;7.32;6.10;;;17.60;94.00;;;;;;4177179;28;20220;-74
2021/12/23 07:53:27;;;;;;;8.52;7.05;;;17.60;94.20;;;;;;4177287;28;20245;-75
2021/12/23 07:55:29;;;;;;;8.82;6.50;;;17.60;94.30;;;;;;4176933;28;20874;-74
2021/12/23 07:57:31;;;;;;;7.63;6.40;;;17.70;94.30;;;;;;4178515;28;20211;-74
2021/12/23 07:59:37;;;;;;;8.45;6.35;;;17.60;94.50;;;;;;4176816;28;20250;-74
2021/12/23 08:01:39;;;;;;;7.07;5.88;;;17.70;94.30;;;;;;4176850;28;20609;-74
2021/12/23 08:03:41;;;;;;;7.05;5.88;;;17.70;94.60;;;;;;4176432;28;20613;-74
2021/12/23 08:05:45;;;;;;;9.07;6.78;;;17.70;94.70;;;;;;4175077;28;20371;-73
2021/12/23 08:07:48;;;;;;;9.95;6.82;;;17.60;93.80;;;;;;4173507;28;20269;-73
2021/12/23 08:09:50;;;;;;;8.23;5.93;;;17.70;94.30;;;;;;4174966;28;20223;-73
2021/12/23 08:11:53;;;;;;;9.23;7.20;;;17.80;94.40;;;;;;4178334;28;20609;-73
2021/12/23 08:13:56;;;;;;;8.18;6.65;;;17.90;94.40;;;;;;4178584;28;20216;-74
2021/12/23 08:16:00;;;;;;;8.40;6.45;;;17.90;93.00;;;;;;4182735;28;20274;-74
2021/12/23 08:18:03;;;;;;;11.13;6.88;;;18.10;93.20;;;;;;4180596;28;20264;-73
2021/12/23 08:20:07;;;;;;;7.75;6.40;;;18.30;92.90;;;;;;4181467;28;20224;-74
2021/12/23 08:22:11;;;;;;;9.82;7.05;;;18.50;93.20;;;;;;4179097;28;20212;-74
2021/12/23 08:24:13;;;;;;;8.50;6.55;;;18.60;93.30;;;;;;4183891;28;20216;-73
2021/12/23 08:26:16;;;;;;;8.73;7.15;;;18.70;93.50;;;;;;4172424;28;20240;-73
2021/12/23 08:28:19;;;;;;;8.45;7.15;;;18.60;92.20;;;;;;4175658;28;20281;-73
2021/12/23 08:30:22;;;;;;;10.05;7.53;;;18.60;92.10;;;;;;4186479;28;20528;-73
2021/12/23 08:32:24;;;;;;;9.18;6.10;;;18.70;92.60;;;;;;4185739;28;20769;-73
2021/12/23 08:34:27;;;;;;;9.07;6.60;;;18.80;93.40;;;;;;4182870;28;20210;-74
2021/12/23 08:36:30;;;;;;;10.55;6.93;;;18.80;92.40;;;;;;4181052;28;20205;-75
2021/12/23 08:38:34;;;;;;;9.57;6.63;;;19.00;93.20;;;;;;4186343;28;20896;-75
2021/12/23 08:40:36;;;;;;;8.40;7.05;;;19.10;92.70;;;;;;4185120;28;20337;-74
2021/12/23 08:42:40;;;;;;;10.13;6.75;;;19.30;93.00;;;;;;4186007;28;20281;-74
2021/12/23 08:44:42;;;;;;;7.07;5.85;;;19.20;92.20;;;;;;4185226;28;20215;-74
2021/12/23 08:46:44;;;;;;;6.65;5.93;;;19.30;93.40;;;;;;4186232;28;20280;-73
2021/12/23 08:48:47;;;;;;;9.77;6.00;;;19.30;93.70;;;;;;4179489;28;20224;-74
2021/12/23 08:50:49;;;;;;;6.90;5.50;;;19.30;93.40;;;;;;4187472;28;20260;-73
2021/12/23 08:52:52;;;;;;;9.43;6.68;;;19.30;94.20;;;;;;4181117;28;20223;-74
2021/12/23 08:54:56;;;;;;;6.82;6.13;;;19.40;94.00;;;;;;4172178;28;20223;-74
2021/12/23 08:56:58;;;;;;;9.55;5.60;;;19.40;93.00;;;;;;4186317;28;20215;-73
2021/12/23 08:59:01;;;;;;;8.68;5.95;;;19.50;93.00;;;;;;4179883;28;20284;-73
2021/12/23 09:01:04;;;;;;;8.82;6.75;;;19.60;92.20;;;;;;4192252;28;20219;-74
2021/12/23 09:03:08;;;;;;;9.27;6.70;;;19.70;92.80;;;;;;4189177;28;20625;-74
2021/12/23 09:05:11;;;;;;;8.65;6.93;;;19.70;92.60;;;;;;4190398;28;20232;-74
2021/12/23 09:07:14;;;;;;;8.25;6.40;;;19.70;93.40;;;;;;4183079;28;20337;-74
2021/12/23 09:09:16;;;;;;;7.68;6.47;;;19.70;94.00;;;;;;4185848;28;20288;-74
2021/12/23 09:11:20;;;;;;;6.78;6.07;;;19.80;92.90;;;;;;4187920;28;20211;-74
2021/12/23 09:13:22;;;;;;;7.60;6.47;;;19.80;93.60;;;;;;4180685;28;20703;-77
2021/12/23 09:15:25;;;;;;;7.38;6.25;;;19.90;93.20;;;;;;4185170;28;20273;-76
2021/12/23 09:17:27;;;;;;;7.85;6.18;;;19.90;93.40;;;;;;4184008;28;20217;-76
2021/12/23 09:19:30;;;;;;;7.45;5.97;;;19.90;93.30;;;;;;4183463;28;20219;-74
2021/12/23 09:21:33;;;;;;;7.45;5.93;;;19.90;93.50;;;;;;4183289;28;20261;-74
2021/12/23 09:23:35;;;;;;;7.45;6.40;;;20.00;93.80;;;;;;4186534;28;20206;-74
2021/12/23 09:25:38;;;;;;;7.13;6.00;;;20.00;93.30;;;;;;4181869;28;20280;-74
2021/12/23 09:27:54;;;;;;;8.82;6.18;;;20.00;93.50;;;;;;4175302;28;20232;-74
2021/12/23 09:34:37;;;;;;;6.65;5.75;;;20.20;94.20;;;;;;4177121;28;20200;-74
2021/12/23 09:36:41;;;;;;;6.97;6.13;;;20.20;94.30;;;;;;4176214;28;20258;-74
2021/12/23 09:38:44;;;;;;;7.13;5.65;;;20.10;94.30;;;;;;4174964;28;20347;-75
2021/12/23 09:40:47;;;;;;;7.53;6.30;;;20.10;94.40;;;;;;4175977;28;20612;-74
2021/12/23 09:42:53;;;;;;;9.80;6.97;;;20.20;94.10;;;;;;4180042;28;20220;-75
2021/12/23 09:44:58;;;;;;;7.25;6.55;;;20.20;93.50;;;;;;4173441;28;20219;-74
2021/12/23 09:47:03;;;;;;;8.27;7.30;;;20.20;93.40;;;;;;4178585;28;20286;-73
2021/12/23 09:49:06;;;;;;;7.32;6.07;;;20.40;94.10;;;;;;4177683;28;20613;-74
2021/12/23 09:51:10;;;;;;;7.65;6.43;;;20.30;92.90;;;;;;4171851;28;20212;-74
2021/12/23 09:53:16;;;;;;;6.45;5.50;;;20.30;94.30;;;;;;4184973;28;20265;-74
2021/12/23 09:55:22;;;;;;;7.70;5.72;;;20.20;94.40;;;;;;4173618;28;20216;-74
2021/12/23 09:57:24;;;;;;;10.68;5.90;;;20.10;94.20;;;;;;4169496;28;20211;-74
2021/12/23 09:59:28;;;;;;;11.60;6.38;;;20.10;94.60;;;;;;4177496;28;20718;-76
2021/12/23 10:01:35;;;;;;;10.10;6.18;;;20.20;94.50;;;;;;4171286;28;20220;-74
2021/12/23 10:03:39;;;;;;;7.28;6.20;;;20.40;94.70;;;;;;4176031;28;20657;-74
2021/12/23 10:05:41;;;;;;;8.57;6.25;;;20.50;94.60;;;;;;4179386;28;20203;-74
2021/12/23 10:07:45;;;;;;;8.00;6.18;;;20.50;94.60;;;;;;4174035;28;20227;-74
2021/12/23 10:09:58;;;;;;;9.35;6.30;;;20.50;94.60;;;;;;4176223;28;20266;-77
2021/12/23 10:12:42;;;;;;;8.75;6.30;;;20.50;94.80;;;;;;4172384;28;20270;-77
2021/12/23 10:31:33;;;;;;;7.22;5.78;;;20.50;94.20;;;;;;4171619;28;20665;-74
2021/12/23 10:33:49;;;;;;;8.95;6.28;;;20.60;94.40;;;;;;4173772;28;20253;-76
2021/12/23 10:38:16;;;;;;;7.95;6.13;;;20.70;94.60;;;;;;4163185;28;20211;-74
2021/12/23 10:40:18;;;;;;;10.75;6.72;;;20.60;94.40;;;;;;4182064;28;20212;-74
2021/12/23 10:42:24;;;;;;;14.25;6.93;;;20.60;93.80;;;;;;4173529;28;20305;-74
2021/12/23 10:44:31;;;;;;;7.13;6.43;;;20.60;94.70;;;;;;4174176;28;20215;-73
2021/12/23 10:46:35;;;;;;;9.38;6.38;;;20.40;95.00;;;;;;4171414;28;20813;-74
2021/12/23 10:48:50;;;;;;;8.45;6.82;;;20.30;95.00;;;;;;4167876;28;20243;-74
2021/12/23 10:50:58;;;;;;;18.75;7.15;;;20.40;94.40;;;;;;4163124;28;20259;-74
2021/12/23 10:53:10;;;;;;;8.50;6.07;;;20.40;95.00;;;;;;4181065;28;20243;-74
2021/12/23 10:59:55;;;;;;;8.13;5.90;;;20.40;95.30;;;;;;4164058;28;20196;-74
2021/12/23 11:02:22;;;;;;;8.32;6.30;;;20.50;95.60;;;;;;4183646;28;20211;-73
2021/12/23 11:04:26;;;;;;;8.65;6.43;;;20.40;95.50;;;;;;4180541;28;20346;-73
2021/12/23 11:06:30;;;;;;;10.02;6.80;;;20.30;94.80;;;;;;4171318;28;20275;-73
2021/12/23 11:08:42;;;;;;;8.85;7.00;;;20.40;94.80;;;;;;4162063;28;20248;-73
2021/12/23 11:30:34;;;;;;;8.38;6.32;;;20.60;95.50;;;;;;4165778;28;20799;-72
2021/12/23 11:37:47;;;;;;;7.15;5.78;;;20.50;95.80;;;;;;4172170;28;20191;-72
2021/12/23 11:40:09;;;;;;;10.20;7.20;;;20.60;96.00;;;;;;4170684;28;20730;-73